In Rescue
 
Open Full Screen Window  High Contrast Mode
May 13, 2021 12:15 PM EDT
Weather Information
Wind Direction
  ---
Wind Speed
  00 kt (0 mph)
Wind Gust
  00 kt (0 mph)
Altimeter
30.30 in
Visibility
10 SM
Temperature
19° C
66° F
Dewpoint
-06° C
21° F
Humidity
18%
1hr Rain Fall
00.00 in.
24hr Rain Fall
00.00 in.
Sky Condition
Scattered @ 9,500 ft
VFR

METAR KSAW 131615Z AUTO 00000KT 10SM SCT095 19/M06 A3030 RMK AO2 T01931057

FAA Disclaimer: The data displayed is for advisory purposes only and is not to be used for flight planning or operations.